Duke Field,(Eglin Af Aux Nr 3) Airport
KEGI : now visible

Airfield :











YOU CAN JOIN US ON...

 
LOGIN :

Register | Disclaimer

   EN    FR    IT 

 









Legend :    VFR   Marginal VFR   IFR   Intensive IFR   Very Intensive IFR
Visi :
Ceiling :
>= 8 km
>= 3000ft
5 to 8 km
1000 to 3000 ft
1500m to 5 km
500 to 1000 ft
800 to 1500m
200 to 500 ft
< 800m
< 200 ft
Symbols :   Thunderstorms  Fog  Heavy snow  Heavy precipitations  Wind > 20 kt






- Airport Elevation : 191 ft


KEGI - Duke Field,(Eglin Af Aux Nr 3)

CURRENT METAR :
  • 142056Z AUTO 27007KT 10SM CLR 18/10 A2988 RMK AO2 SLP119 T01760095 55002 $

EXPIRED METARs :
  • 141956Z AUTO 30006KT 10SM CLR 17/09 A2987 RMK AO2 SLP115 T01720091 $
  • 141856Z AUTO 30006KT 10SM CLR 16/09 A2987 RMK AO2 SLP116 T01580088 $

TAF AMD TAF KEGI
Valid from the 14 at 06:00 until the 15 at 08:00 UTC


140600Z 1406/1508 33006KT 9999 SCT004 OVC025 QNH2977INS
TEMPO 1406/1409 8000 BR BKN003 BKN025
BECMG 1411/1412 31009KT 9000 BR SCT007 QNH2981INS
BECMG 1414/1415 31009KT 9999 NSW FEW015 QNH2985INS TX16/1420Z TN12/1411Z LAST NO AMDS AFT 1406 NEXT 1610



MET'MAP, your aeronautical weather chart ! - Copyright ORBIFLY December 2007 - Disclaimer

ORBIFLY MET'MAP TEAM :

Programming & Development : Alexandra Zaïnal
Concept & original design : Baudouin d'Aumeries
Assistance for programming : Marc-Olivier Méhu
Technical & hardware support : Manuel Goepfert

Contact : metmap@orbifly.com




SOURCES & CREDITS :

   NOAA       Earth
Advisory